sensor_id;sensor_type;location;lat;lon;timestamp;pressure;altitude;pressure_sealevel;temperature;humidity
46267;BME280;31998;48.798;15.066;2022-11-21T00:00:41;94973.00;;;-0.02;100.00
46267;BME280;31998;48.798;15.066;2022-11-21T00:03:08;94967.16;;;-0.04;100.00
46267;BME280;31998;48.798;15.066;2022-11-21T00:05:38;94963.06;;;0.05;100.00
46267;BME280;31998;48.798;15.066;2022-11-21T00:08:04;94954.81;;;0.02;100.00
46267;BME280;31998;48.798;15.066;2022-11-21T00:10:30;94962.69;;;0.13;100.00
46267;BME280;31998;48.798;15.066;2022-11-21T00:12:56;94951.28;;;0.13;100.00
46267;BME280;31998;48.798;15.066;2022-11-21T00:15:23;94965.41;;;0.02;100.00
46267;BME280;31998;48.798;15.066;2022-11-21T00:17:48;94962.19;;;-0.17;100.00
46267;BME280;31998;48.798;15.066;2022-11-21T00:20:14;94951.94;;;-0.31;100.00
46267;BME280;31998;48.798;15.066;2022-11-21T00:22:40;94934.41;;;-0.37;100.00
46267;BME280;31998;48.798;15.066;2022-11-21T00:25:06;94961.56;;;-0.24;100.00
46267;BME280;31998;48.798;15.066;2022-11-21T00:27:31;94961.56;;;-0.24;100.00
46267;BME280;31998;48.798;15.066;2022-11-21T00:29:57;94973.88;;;-0.13;100.00
46267;BME280;31998;48.798;15.066;2022-11-21T00:32:22;94966.84;;;-0.08;100.00
46267;BME280;31998;48.798;15.066;2022-11-21T00:34:47;94964.81;;;-0.01;100.00
46267;BME280;31998;48.798;15.066;2022-11-21T00:37:13;94944.06;;;0.08;100.00
46267;BME280;31998;48.798;15.066;2022-11-21T00:39:39;94943.34;;;0.13;100.00
46267;BME280;31998;48.798;15.066;2022-11-21T00:42:07;94928.84;;;-0.02;100.00
46267;BME280;31998;48.798;15.066;2022-11-21T00:44:32;94922.47;;;-0.06;100.00
46267;BME280;31998;48.798;15.066;2022-11-21T00:46:58;94928.13;;;0.03;100.00
46267;BME280;31998;48.798;15.066;2022-11-21T00:49:23;94924.97;;;0.06;100.00
46267;BME280;31998;48.798;15.066;2022-11-21T00:51:49;94913.13;;;0.09;100.00
46267;BME280;31998;48.798;15.066;2022-11-21T00:54:14;94907.06;;;0.08;100.00
46267;BME280;31998;48.798;15.066;2022-11-21T00:56:39;94903.97;;;0.16;100.00
46267;BME280;31998;48.798;15.066;2022-11-21T00:59:05;94905.72;;;0.28;100.00
46267;BME280;31998;48.798;15.066;2022-11-21T01:01:30;94902.31;;;0.32;100.00
46267;BME280;31998;48.798;15.066;2022-11-21T01:03:57;94903.94;;;0.33;100.00
46267;BME280;31998;48.798;15.066;2022-11-21T01:06:22;94894.03;;;0.23;100.00
46267;BME280;31998;48.798;15.066;2022-11-21T01:08:48;94900.97;;;0.30;100.00
46267;BME280;31998;48.798;15.066;2022-11-21T01:11:16;94894.63;;;0.31;100.00
46267;BME280;31998;48.798;15.066;2022-11-21T01:13:42;94887.75;;;0.30;100.00
46267;BME280;31998;48.798;15.066;2022-11-21T01:16:08;94892.06;;;0.36;100.00
46267;BME280;31998;48.798;15.066;2022-11-21T01:18:34;94894.00;;;0.40;100.00
46267;BME280;31998;48.798;15.066;2022-11-21T01:21:01;94888.69;;;0.40;100.00
46267;BME280;31998;48.798;15.066;2022-11-21T01:23:27;94888.97;;;0.44;100.00
46267;BME280;31998;48.798;15.066;2022-11-21T01:25:53;94889.56;;;0.46;100.00
46267;BME280;31998;48.798;15.066;2022-11-21T01:28:18;94875.50;;;0.45;100.00
46267;BME280;31998;48.798;15.066;2022-11-21T01:30:43;94877.91;;;0.47;100.00
46267;BME280;31998;48.798;15.066;2022-11-21T01:33:09;94876.94;;;0.53;100.00
46267;BME280;31998;48.798;15.066;2022-11-21T01:35:34;94887.03;;;0.56;100.00
46267;BME280;31998;48.798;15.066;2022-11-21T01:37:59;94879.00;;;0.51;100.00
46267;BME280;31998;48.798;15.066;2022-11-21T01:40:25;94868.13;;;0.47;100.00
46267;BME280;31998;48.798;15.066;2022-11-21T01:43:01;94880.13;;;0.55;100.00
46267;BME280;31998;48.798;15.066;2022-11-21T01:48:28;94867.44;;;0.57;100.00
46267;BME280;31998;48.798;15.066;2022-11-21T01:50:58;94856.84;;;0.57;100.00
46267;BME280;31998;48.798;15.066;2022-11-21T01:53:25;94856.84;;;0.57;100.00
46267;BME280;31998;48.798;15.066;2022-11-21T01:55:51;94859.56;;;0.62;100.00
46267;BME280;31998;48.798;15.066;2022-11-21T01:58:17;94850.81;;;0.62;100.00
46267;BME280;31998;48.798;15.066;2022-11-21T02:00:44;94847.38;;;0.61;100.00
46267;BME280;31998;48.798;15.066;2022-11-21T02:03:14;94852.66;;;0.61;100.00
46267;BME280;31998;48.798;15.066;2022-11-21T02:05:40;94861.88;;;0.59;100.00
46267;BME280;31998;48.798;15.066;2022-11-21T02:08:18;94849.97;;;0.56;100.00
46267;BME280;31998;48.798;15.066;2022-11-21T02:10:56;94855.31;;;0.61;100.00
46267;BME280;31998;48.798;15.066;2022-11-21T02:13:24;94853.72;;;0.60;100.00
46267;BME280;31998;48.798;15.066;2022-11-21T02:15:50;94853.72;;;0.60;100.00
46267;BME280;31998;48.798;15.066;2022-11-21T02:18:16;94851.38;;;0.64;100.00
46267;BME280;31998;48.798;15.066;2022-11-21T02:20:44;94852.72;;;0.66;100.00
46267;BME280;31998;48.798;15.066;2022-11-21T02:25:43;94839.50;;;0.66;100.00
46267;BME280;31998;48.798;15.066;2022-11-21T02:28:11;94835.50;;;0.91;100.00
46267;BME280;31998;48.798;15.066;2022-11-21T02:30:40;94838.69;;;1.20;100.00
46267;BME280;31998;48.798;15.066;2022-11-21T02:33:07;94833.56;;;1.40;100.00
46267;BME280;31998;48.798;15.066;2022-11-21T02:35:32;94825.13;;;1.48;100.00
46267;BME280;31998;48.798;15.066;2022-11-21T02:38:09;94826.81;;;1.59;100.00
46267;BME280;31998;48.798;15.066;2022-11-21T02:40:39;94826.66;;;1.76;100.00
46267;BME280;31998;48.798;15.066;2022-11-21T02:43:13;94823.31;;;1.91;100.00
46267;BME280;31998;48.798;15.066;2022-11-21T02:45:42;94820.69;;;2.01;100.00
46267;BME280;31998;48.798;15.066;2022-11-21T02:48:09;94817.81;;;2.03;100.00
46267;BME280;31998;48.798;15.066;2022-11-21T02:50:42;94809.03;;;2.02;100.00
46267;BME280;31998;48.798;15.066;2022-11-21T02:53:10;94808.25;;;2.07;100.00
46267;BME280;31998;48.798;15.066;2022-11-21T02:55:37;94804.03;;;2.11;100.00
46267;BME280;31998;48.798;15.066;2022-11-21T02:58:03;94806.16;;;2.14;100.00
46267;BME280;31998;48.798;15.066;2022-11-21T03:00:29;94804.34;;;2.20;100.00
46267;BME280;31998;48.798;15.066;2022-11-21T03:02:54;94806.72;;;2.16;100.00
46267;BME280;31998;48.798;15.066;2022-11-21T03:05:20;94802.75;;;2.18;100.00
46267;BME280;31998;48.798;15.066;2022-11-21T03:07:47;94803.53;;;2.19;100.00
46267;BME280;31998;48.798;15.066;2022-11-21T03:10:12;94781.78;;;2.17;100.00
46267;BME280;31998;48.798;15.066;2022-11-21T03:12:40;94803.56;;;2.24;100.00
46267;BME280;31998;48.798;15.066;2022-11-21T03:15:07;94793.47;;;2.26;100.00
46267;BME280;31998;48.798;15.066;2022-11-21T03:17:33;94798.78;;;2.26;100.00
46267;BME280;31998;48.798;15.066;2022-11-21T03:19:59;94785.78;;;2.25;100.00
46267;BME280;31998;48.798;15.066;2022-11-21T03:22:24;94783.38;;;2.23;100.00
46267;BME280;31998;48.798;15.066;2022-11-21T03:24:50;94794.56;;;2.30;100.00
46267;BME280;31998;48.798;15.066;2022-11-21T03:27:15;94790.06;;;2.31;100.00
46267;BME280;31998;48.798;15.066;2022-11-21T03:29:41;94788.16;;;2.26;100.00
46267;BME280;31998;48.798;15.066;2022-11-21T03:32:06;94790.03;;;2.26;100.00
46267;BME280;31998;48.798;15.066;2022-11-21T03:34:31;94790.81;;;2.26;100.00
46267;BME280;31998;48.798;15.066;2022-11-21T03:36:57;94784.44;;;2.27;100.00
46267;BME280;31998;48.798;15.066;2022-11-21T03:39:22;94786.56;;;2.25;100.00
46267;BME280;31998;48.798;15.066;2022-11-21T03:41:48;94779.94;;;2.23;100.00
46267;BME280;31998;48.798;15.066;2022-11-21T03:44:13;94780.19;;;2.21;100.00
46267;BME280;31998;48.798;15.066;2022-11-21T03:46:41;94783.91;;;2.20;100.00
46267;BME280;31998;48.798;15.066;2022-11-21T03:49:07;94780.72;;;2.18;100.00
46267;BME280;31998;48.798;15.066;2022-11-21T03:51:33;94778.06;;;2.18;100.00
46267;BME280;31998;48.798;15.066;2022-11-21T03:53:59;94779.38;;;2.15;100.00
46267;BME280;31998;48.798;15.066;2022-11-21T03:56:25;94775.63;;;2.11;100.00
46267;BME280;31998;48.798;15.066;2022-11-21T03:58:51;94777.50;;;2.11;100.00
46267;BME280;31998;48.798;15.066;2022-11-21T04:01:17;94783.88;;;2.10;100.00
46267;BME280;31998;48.798;15.066;2022-11-21T04:03:43;94772.16;;;2.06;100.00
46267;BME280;31998;48.798;15.066;2022-11-21T04:06:11;94765.50;;;1.98;100.00
46267;BME280;31998;48.798;15.066;2022-11-21T04:08:40;94774.78;;;2.01;100.00
46267;BME280;31998;48.798;15.066;2022-11-21T04:11:06;94767.09;;;1.99;100.00
46267;BME280;31998;48.798;15.066;2022-11-21T04:13:31;94754.59;;;1.95;100.00
46267;BME280;31998;48.798;15.066;2022-11-21T04:15:57;94765.19;;;1.95;100.00
46267;BME280;31998;48.798;15.066;2022-11-21T04:18:22;94767.84;;;1.89;100.00
46267;BME280;31998;48.798;15.066;2022-11-21T04:20:48;94763.03;;;1.86;100.00
46267;BME280;31998;48.798;15.066;2022-11-21T04:23:13;94765.16;;;1.84;100.00
46267;BME280;31998;48.798;15.066;2022-11-21T04:25:40;94764.84;;;1.76;100.00
46267;BME280;31998;48.798;15.066;2022-11-21T04:28:06;94768.03;;;1.73;100.00
46267;BME280;31998;48.798;15.066;2022-11-21T04:30:32;94753.44;;;1.70;100.00
46267;BME280;31998;48.798;15.066;2022-11-21T04:32:58;94753.97;;;1.72;100.00
46267;BME280;31998;48.798;15.066;2022-11-21T04:35:25;94747.09;;;1.76;100.00
46267;BME280;31998;48.798;15.066;2022-11-21T04:37:51;94738.34;;;1.81;100.00
46267;BME280;31998;48.798;15.066;2022-11-21T04:40:17;94746.34;;;1.86;100.00
46267;BME280;31998;48.798;15.066;2022-11-21T04:42:43;94732.31;;;1.90;100.00
46267;BME280;31998;48.798;15.066;2022-11-21T04:45:13;94736.81;;;1.95;100.00
46267;BME280;31998;48.798;15.066;2022-11-21T04:47:41;94727.28;;;1.99;100.00
46267;BME280;31998;48.798;15.066;2022-11-21T04:50:07;94723.31;;;1.97;100.00
46267;BME280;31998;48.798;15.066;2022-11-21T04:52:33;94724.94;;;2.03;100.00
46267;BME280;31998;48.798;15.066;2022-11-21T04:54:59;94728.63;;;2.02;100.00
46267;BME280;31998;48.798;15.066;2022-11-21T04:57:26;94724.38;;;1.96;100.00
46267;BME280;31998;48.798;15.066;2022-11-21T04:59:52;94721.72;;;1.96;100.00
46267;BME280;31998;48.798;15.066;2022-11-21T05:02:17;94727.53;;;1.93;100.00
46267;BME280;31998;48.798;15.066;2022-11-21T05:04:42;94734.97;;;1.90;100.00
46267;BME280;31998;48.798;15.066;2022-11-21T05:07:08;94737.06;;;1.88;100.00
46267;BME280;31998;48.798;15.066;2022-11-21T05:09:33;94722.19;;;1.87;100.00
46267;BME280;31998;48.798;15.066;2022-11-21T05:11:59;94718.78;;;1.92;100.00
46267;BME280;31998;48.798;15.066;2022-11-21T05:14:42;94724.38;;;1.96;100.00
46267;BME280;31998;48.798;15.066;2022-11-21T05:17:08;94724.63;;;1.99;100.00
46267;BME280;31998;48.798;15.066;2022-11-21T05:19:33;94717.44;;;1.95;100.00
46267;BME280;31998;48.798;15.066;2022-11-21T05:21:58;94724.63;;;1.99;100.00
46267;BME280;31998;48.798;15.066;2022-11-21T05:24:24;94716.41;;;2.01;100.00
46267;BME280;31998;48.798;15.066;2022-11-21T05:26:49;94722.00;;;2.04;100.00
46267;BME280;31998;48.798;15.066;2022-11-21T05:29:14;94728.38;;;2.08;100.00
46267;BME280;31998;48.798;15.066;2022-11-21T05:31:40;94722.28;;;2.08;100.00
46267;BME280;31998;48.798;15.066;2022-11-21T05:34:05;94726.00;;;2.07;100.00
46267;BME280;31998;48.798;15.066;2022-11-21T05:36:30;94735.06;;;2.21;100.00
46267;BME280;31998;48.798;15.066;2022-11-21T05:38:56;94723.91;;;2.19;100.00
46267;BME280;31998;48.798;15.066;2022-11-21T05:41:21;94724.19;;;2.23;100.00
46267;BME280;31998;48.798;15.066;2022-11-21T05:43:47;94731.09;;;2.24;100.00
46267;BME280;31998;48.798;15.066;2022-11-21T05:46:23;94731.91;;;2.24;100.00
46267;BME280;31998;48.798;15.066;2022-11-21T05:48:49;94724.72;;;2.20;100.00
46267;BME280;31998;48.798;15.066;2022-11-21T05:51:16;94712.22;;;2.15;100.00
46267;BME280;31998;48.798;15.066;2022-11-21T05:53:42;94703.22;;;2.16;100.00
46267;BME280;31998;48.798;15.066;2022-11-21T05:56:10;94691.50;;;2.12;100.00
46267;BME280;31998;48.798;15.066;2022-11-21T05:58:36;94684.09;;;2.09;100.00
46267;BME280;31998;48.798;15.066;2022-11-21T06:01:02;94685.13;;;2.08;100.00
46267;BME280;31998;48.798;15.066;2022-11-21T06:03:30;94685.13;;;2.03;100.00
46267;BME280;31998;48.798;15.066;2022-11-21T06:06:04;94695.75;;;2.03;100.00
46267;BME280;31998;48.798;15.066;2022-11-21T06:08:42;94699.19;;;2.03;100.00
46267;BME280;31998;48.798;15.066;2022-11-21T06:11:09;94697.88;;;2.06;100.00
46267;BME280;31998;48.798;15.066;2022-11-21T06:13:35;94694.41;;;2.05;100.00
46267;BME280;31998;48.798;15.066;2022-11-21T06:16:07;94693.09;;;2.08;100.00
46267;BME280;31998;48.798;15.066;2022-11-21T06:18:35;94698.41;;;2.13;100.00
46267;BME280;31998;48.798;15.066;2022-11-21T06:21:21;94689.38;;;2.14;100.00
46267;BME280;31998;48.798;15.066;2022-11-21T06:23:50;94679.03;;;2.12;100.00
46267;BME280;31998;48.798;15.066;2022-11-21T06:26:19;94688.88;;;2.17;100.00
46267;BME280;31998;48.798;15.066;2022-11-21T06:28:46;94678.78;;;2.14;100.00
46267;BME280;31998;48.798;15.066;2022-11-21T06:31:14;94690.75;;;2.16;100.00
46267;BME280;31998;48.798;15.066;2022-11-21T06:33:40;94694.97;;;2.17;100.00
46267;BME280;31998;48.798;15.066;2022-11-21T06:36:16;94696.31;;;2.20;100.00
46267;BME280;31998;48.798;15.066;2022-11-21T06:38:42;94695.81;;;2.23;100.00
46267;BME280;31998;48.798;15.066;2022-11-21T06:43:40;94680.66;;;2.18;100.00
46267;BME280;31998;48.798;15.066;2022-11-21T06:46:06;94691.31;;;2.29;100.00
46267;BME280;31998;48.798;15.066;2022-11-21T06:48:32;94695.81;;;2.33;100.00
46267;BME280;31998;48.798;15.066;2022-11-21T06:51:19;94697.41;;;2.39;100.00
46267;BME280;31998;48.798;15.066;2022-11-21T06:53:45;94693.69;;;2.40;100.00
46267;BME280;31998;48.798;15.066;2022-11-21T06:56:14;94692.09;;;2.39;100.00
46267;BME280;31998;48.798;15.066;2022-11-21T06:58:39;94696.91;;;2.42;100.00
46267;BME280;31998;48.798;15.066;2022-11-21T07:01:06;94699.56;;;2.42;100.00
46267;BME280;31998;48.798;15.066;2022-11-21T07:03:32;94698.75;;;2.42;100.00
46267;BME280;31998;48.798;15.066;2022-11-21T07:05:59;94678.81;;;2.39;100.00
46267;BME280;31998;48.798;15.066;2022-11-21T07:08:29;94689.47;;;2.44;100.00
46267;BME280;31998;48.798;15.066;2022-11-21T07:10:59;94682.03;;;2.41;100.00
46267;BME280;31998;48.798;15.066;2022-11-21T07:13:25;94691.34;;;2.49;100.00
46267;BME280;31998;48.798;15.066;2022-11-21T07:15:54;94689.72;;;2.53;100.00
46267;BME280;31998;48.798;15.066;2022-11-21T07:18:20;94693.47;;;2.57;100.00
46267;BME280;31998;48.798;15.066;2022-11-21T07:20:47;94687.63;;;2.60;100.00
46267;BME280;31998;48.798;15.066;2022-11-21T07:23:13;94691.63;;;2.63;100.00
46267;BME280;31998;48.798;15.066;2022-11-21T07:25:42;94691.59;;;2.58;100.00
46267;BME280;31998;48.798;15.066;2022-11-21T07:28:08;94691.88;;;2.56;100.00
46267;BME280;31998;48.798;15.066;2022-11-21T07:30:34;94690.03;;;2.62;100.00
46267;BME280;31998;48.798;15.066;2022-11-21T07:33:03;94685.50;;;2.62;100.00
46267;BME280;31998;48.798;15.066;2022-11-21T07:35:30;94679.66;;;2.60;100.00
46267;BME280;31998;48.798;15.066;2022-11-21T07:37:56;94683.38;;;2.64;100.00
46267;BME280;31998;48.798;15.066;2022-11-21T07:40:22;94681.53;;;2.70;100.00
46267;BME280;31998;48.798;15.066;2022-11-21T07:42:47;94683.38;;;2.69;100.00
46267;BME280;31998;48.798;15.066;2022-11-21T07:45:13;94696.91;;;2.73;100.00
46267;BME280;31998;48.798;15.066;2022-11-21T07:47:39;94688.44;;;2.81;100.00
46267;BME280;31998;48.798;15.066;2022-11-21T07:50:06;94666.66;;;2.74;100.00
46267;BME280;31998;48.798;15.066;2022-11-21T07:52:32;94693.22;;;2.94;100.00
46267;BME280;31998;48.798;15.066;2022-11-21T07:54:57;94700.13;;;3.01;100.00
46267;BME280;31998;48.798;15.066;2022-11-21T07:57:23;94688.16;;;3.08;100.00
46267;BME280;31998;48.798;15.066;2022-11-21T07:59:49;94690.03;;;3.08;100.00
46267;BME280;31998;48.798;15.066;2022-11-21T08:02:19;94684.69;;;3.13;100.00
46267;BME280;31998;48.798;15.066;2022-11-21T08:04:46;94685.75;;;3.12;100.00
46267;BME280;31998;48.798;15.066;2022-11-21T08:07:12;94690.00;;;3.23;100.00
46267;BME280;31998;48.798;15.066;2022-11-21T08:09:38;94696.63;;;3.31;100.00
46267;BME280;31998;48.798;15.066;2022-11-21T08:12:03;94707.28;;;3.41;100.00
46267;BME280;31998;48.798;15.066;2022-11-21T08:14:29;94699.56;;;3.39;100.00
46267;BME280;31998;48.798;15.066;2022-11-21T08:16:54;94699.28;;;3.46;100.00
46267;BME280;31998;48.798;15.066;2022-11-21T08:19:19;94703.78;;;3.50;100.00
46267;BME280;31998;48.798;15.066;2022-11-21T08:21:45;94697.16;;;3.53;100.00
46267;BME280;31998;48.798;15.066;2022-11-21T08:24:10;94687.56;;;3.52;100.00
46267;BME280;31998;48.798;15.066;2022-11-21T08:26:39;94693.13;;;3.56;100.00
46267;BME280;31998;48.798;15.066;2022-11-21T08:29:04;94679.06;;;3.50;100.00
46267;BME280;31998;48.798;15.066;2022-11-21T08:31:30;94676.38;;;3.55;100.00
46267;BME280;31998;48.798;15.066;2022-11-21T08:33:55;94684.38;;;3.55;100.00
46267;BME280;31998;48.798;15.066;2022-11-21T08:36:21;94676.66;;;3.53;100.00
46267;BME280;31998;48.798;15.066;2022-11-21T08:38:46;94664.66;;;3.61;100.00
46267;BME280;31998;48.798;15.066;2022-11-21T08:41:12;94665.97;;;3.64;100.00
46267;BME280;31998;48.798;15.066;2022-11-21T08:43:55;94675.03;;;3.63;100.00
46267;BME280;31998;48.798;15.066;2022-11-21T08:46:21;94675.53;;;3.70;100.00
46267;BME280;31998;48.798;15.066;2022-11-21T08:48:51;94663.81;;;3.71;100.00
46267;BME280;31998;48.798;15.066;2022-11-21T08:51:17;94670.72;;;3.82;100.00
46267;BME280;31998;48.798;15.066;2022-11-21T08:53:42;94660.16;;;4.16;100.00
46267;BME280;31998;48.798;15.066;2022-11-21T08:56:08;94660.13;;;4.26;100.00
46267;BME280;31998;48.798;15.066;2022-11-21T08:58:33;94662.91;;;4.50;100.00
46267;BME280;31998;48.798;15.066;2022-11-21T09:00:59;94654.63;;;4.91;100.00
46267;BME280;31998;48.798;15.066;2022-11-21T09:03:24;94655.88;;;5.28;100.00
46267;BME280;31998;48.798;15.066;2022-11-21T09:05:50;94640.97;;;5.51;100.00
46267;BME280;31998;48.798;15.066;2022-11-21T09:08:15;94633.25;;;5.49;100.00
46267;BME280;31998;48.798;15.066;2022-11-21T09:10:40;94637.72;;;5.54;100.00
46267;BME280;31998;48.798;15.066;2022-11-21T09:13:06;94634.50;;;5.57;100.00
46267;BME280;31998;48.798;15.066;2022-11-21T09:15:31;94633.72;;;5.56;100.00
46267;BME280;31998;48.798;15.066;2022-11-21T09:18:15;94639.47;;;5.39;100.00
46267;BME280;31998;48.798;15.066;2022-11-21T09:20:43;94634.72;;;5.60;100.00
46267;BME280;31998;48.798;15.066;2022-11-21T09:23:13;94630.16;;;5.85;100.00
46267;BME280;31998;48.798;15.066;2022-11-21T09:25:40;94638.97;;;5.85;100.00
46267;BME280;31998;48.798;15.066;2022-11-21T09:28:07;94627.91;;;5.97;100.00
46267;BME280;31998;48.798;15.066;2022-11-21T09:30:33;94627.09;;;5.72;100.00
46267;BME280;31998;48.798;15.066;2022-11-21T09:33:04;94635.00;;;5.83;100.00
46267;BME280;31998;48.798;15.066;2022-11-21T09:35:29;94637.50;;;5.98;100.00
46267;BME280;31998;48.798;15.066;2022-11-21T09:37:55;94630.91;;;6.14;100.00
46267;BME280;31998;48.798;15.066;2022-11-21T09:40:21;94641.78;;;6.18;100.00
46267;BME280;31998;48.798;15.066;2022-11-21T09:43:45;94641.94;;;6.08;100.00
46267;BME280;31998;48.798;15.066;2022-11-21T09:46:16;94633.19;;;6.02;100.00
46267;BME280;31998;48.798;15.066;2022-11-21T09:49:22;94638.91;;;6.14;100.00
46267;BME280;31998;48.798;15.066;2022-11-21T09:51:42;94638.47;;;6.07;100.00
46267;BME280;31998;48.798;15.066;2022-11-21T09:56:36;94646.38;;;5.69;100.00
46267;BME280;31998;48.798;15.066;2022-11-21T09:59:24;94644.72;;;5.50;100.00
46267;BME280;31998;48.798;15.066;2022-11-21T10:01:53;94645.84;;;5.43;100.00
46267;BME280;31998;48.798;15.066;2022-11-21T10:04:18;94650.50;;;5.57;100.00
46267;BME280;31998;48.798;15.066;2022-11-21T10:06:54;94655.06;;;5.56;100.00
46267;BME280;31998;48.798;15.066;2022-11-21T10:31:18;94664.59;;;6.10;100.00
46267;BME280;31998;48.798;15.066;2022-11-21T10:33:44;94670.94;;;5.95;100.00
46267;BME280;31998;48.798;15.066;2022-11-21T10:36:21;94683.34;;;5.81;100.00
46267;BME280;31998;48.798;15.066;2022-11-21T10:38:47;94684.59;;;5.65;100.00
46267;BME280;31998;48.798;15.066;2022-11-21T10:41:23;94668.84;;;5.63;100.00
46267;BME280;31998;48.798;15.066;2022-11-21T10:44:08;94679.41;;;5.73;100.00
46267;BME280;31998;48.798;15.066;2022-11-21T10:46:57;94683.78;;;5.64;100.00
46267;BME280;31998;48.798;15.066;2022-11-21T10:49:24;94694.38;;;5.45;100.00
46267;BME280;31998;48.798;15.066;2022-11-21T10:52:05;94682.03;;;5.26;100.00
46267;BME280;31998;48.798;15.066;2022-11-21T10:54:31;94680.13;;;5.31;100.00
46267;BME280;31998;48.798;15.066;2022-11-21T10:57:12;94679.16;;;5.22;100.00
46267;BME280;31998;48.798;15.066;2022-11-21T10:59:38;94683.72;;;5.16;100.00
46267;BME280;31998;48.798;15.066;2022-11-21T11:04:38;94685.00;;;5.24;100.00
46267;BME280;31998;48.798;15.066;2022-11-21T11:07:26;94687.38;;;5.26;100.00
46267;BME280;31998;48.798;15.066;2022-11-21T11:10:17;94685.09;;;5.43;100.00
46267;BME280;31998;48.798;15.066;2022-11-21T11:12:48;94683.28;;;5.33;100.00
46267;BME280;31998;48.798;15.066;2022-11-21T11:15:32;94683.28;;;5.33;100.00
46267;BME280;31998;48.798;15.066;2022-11-21T11:18:00;94693.13;;;5.38;100.00
46267;BME280;31998;48.798;15.066;2022-11-21T11:20:35;94679.41;;;5.50;100.00
46267;BME280;31998;48.798;15.066;2022-11-21T11:25:51;94673.97;;;5.84;100.00
46267;BME280;31998;48.798;15.066;2022-11-21T11:28:17;94671.41;;;5.73;100.00
46267;BME280;31998;48.798;15.066;2022-11-21T11:30:48;94682.19;;;5.63;100.00
46267;BME280;31998;48.798;15.066;2022-11-21T11:33:36;94695.97;;;5.76;100.00
46267;BME280;31998;48.798;15.066;2022-11-21T11:36:15;94686.88;;;5.77;100.00
46267;BME280;31998;48.798;15.066;2022-11-21T11:38:54;94687.41;;;5.73;100.00
46267;BME280;31998;48.798;15.066;2022-11-21T11:47:59;94692.84;;;5.39;100.00
46267;BME280;31998;48.798;15.066;2022-11-21T11:50:35;94680.91;;;5.32;100.00
46267;BME280;31998;48.798;15.066;2022-11-21T11:58:28;94678.78;;;5.58;100.00
46267;BME280;31998;48.798;15.066;2022-11-21T12:01:08;94680.84;;;5.66;100.00
46267;BME280;31998;48.798;15.066;2022-11-21T12:08:41;94680.31;;;5.64;100.00
46267;BME280;31998;48.798;15.066;2022-11-21T12:11:23;94670.03;;;5.52;100.00
46267;BME280;31998;48.798;15.066;2022-11-21T12:14:28;94673.91;;;5.65;100.00
46267;BME280;31998;48.798;15.066;2022-11-21T12:17:15;94673.28;;;5.73;100.00
46267;BME280;31998;48.798;15.066;2022-11-21T12:19:43;94668.19;;;5.77;100.00
46267;BME280;31998;48.798;15.066;2022-11-21T12:22:09;94664.25;;;5.93;100.00
46267;BME280;31998;48.798;15.066;2022-11-21T12:24:36;94658.22;;;6.06;100.00
46267;BME280;31998;48.798;15.066;2022-11-21T12:27:30;94662.03;;;6.43;100.00
46267;BME280;31998;48.798;15.066;2022-11-21T12:35:17;94649.97;;;6.27;100.00
46267;BME280;31998;48.798;15.066;2022-11-21T12:43:19;94652.63;;;6.08;100.00
46267;BME280;31998;48.798;15.066;2022-11-21T12:45:54;94646.72;;;6.30;100.00
46267;BME280;31998;48.798;15.066;2022-11-21T12:55:05;94643.94;;;6.91;100.00
46267;BME280;31998;48.798;15.066;2022-11-21T13:03:26;94636.91;;;6.95;100.00
46267;BME280;31998;48.798;15.066;2022-11-21T13:05:54;94643.63;;;7.12;100.00
46267;BME280;31998;48.798;15.066;2022-11-21T13:08:24;94647.63;;;6.95;100.00
46267;BME280;31998;48.798;15.066;2022-11-21T13:13:47;94634.72;;;6.97;100.00
46267;BME280;31998;48.798;15.066;2022-11-21T13:16:24;94642.56;;;6.94;100.00
46267;BME280;31998;48.798;15.066;2022-11-21T13:19:27;94640.72;;;6.75;100.00
46267;BME280;31998;48.798;15.066;2022-11-21T13:21:55;94638.44;;;6.83;100.00
46267;BME280;31998;48.798;15.066;2022-11-21T13:30:19;94640.97;;;6.93;100.00
46267;BME280;31998;48.798;15.066;2022-11-21T13:32:49;94641.06;;;6.88;100.00
46267;BME280;31998;48.798;15.066;2022-11-21T13:38:06;94649.25;;;6.21;100.00
46267;BME280;31998;48.798;15.066;2022-11-21T13:40:38;94636.50;;;5.94;100.00
46267;BME280;31998;48.798;15.066;2022-11-21T13:45:45;94649.88;;;5.65;100.00
46267;BME280;31998;48.798;15.066;2022-11-21T13:51:10;94661.69;;;5.35;100.00
46267;BME280;31998;48.798;15.066;2022-11-21T13:56:09;94657.97;;;5.31;100.00
46267;BME280;31998;48.798;15.066;2022-11-21T14:02:08;94657.13;;;5.06;100.00
46267;BME280;31998;48.798;15.066;2022-11-21T14:04:56;94655.63;;;4.95;100.00
46267;BME280;31998;48.798;15.066;2022-11-21T14:07:28;94661.28;;;4.88;100.00
46267;BME280;31998;48.798;15.066;2022-11-21T14:09:56;94652.56;;;4.83;100.00
46267;BME280;31998;48.798;15.066;2022-11-21T14:12:31;94656.03;;;4.78;100.00
46267;BME280;31998;48.798;15.066;2022-11-21T14:17:45;94658.34;;;4.90;100.00
46267;BME280;31998;48.798;15.066;2022-11-21T14:25:16;94655.50;;;5.10;100.00
46267;BME280;31998;48.798;15.066;2022-11-21T14:27:46;94654.94;;;5.13;100.00
46267;BME280;31998;48.798;15.066;2022-11-21T14:32:55;94649.50;;;4.95;100.00
46267;BME280;31998;48.798;15.066;2022-11-21T14:35:22;94657.78;;;4.93;100.00
46267;BME280;31998;48.798;15.066;2022-11-21T14:37:48;94655.72;;;4.85;100.00
46267;BME280;31998;48.798;15.066;2022-11-21T14:40:22;94667.19;;;4.85;100.00
46267;BME280;31998;48.798;15.066;2022-11-21T14:42:48;94660.00;;;4.81;100.00
46267;BME280;31998;48.798;15.066;2022-11-21T14:45:21;94659.00;;;4.77;100.00
46267;BME280;31998;48.798;15.066;2022-11-21T14:47:52;94667.34;;;4.65;100.00
46267;BME280;31998;48.798;15.066;2022-11-21T14:50:26;94663.66;;;4.56;100.00